createdAt,value
2018-06-11T00:00:58.078Z,27.00
2018-06-11T00:02:03.589Z,25.90
2018-06-11T00:03:09.108Z,27.60
2018-06-11T00:04:14.625Z,27.80
2018-06-11T00:05:20.143Z,27.90
2018-06-11T00:06:25.664Z,27.30
2018-06-11T00:07:31.185Z,27.40
2018-06-11T00:08:36.700Z,27.30
2018-06-11T00:09:42.208Z,26.80
2018-06-11T00:10:47.752Z,27.50
2018-06-11T00:11:53.287Z,27.30
2018-06-11T00:12:58.763Z,27.80
2018-06-11T00:14:04.288Z,26.40
2018-06-11T00:15:09.802Z,27.40
2018-06-11T00:16:15.315Z,28.30
2018-06-11T00:17:20.840Z,28.00
2018-06-11T00:18:26.348Z,28.00
2018-06-11T00:19:31.870Z,27.80
2018-06-11T00:20:37.396Z,27.50
2018-06-11T00:21:42.908Z,27.10
2018-06-11T00:22:48.424Z,28.40
2018-06-11T00:23:53.932Z,27.10
2018-06-11T00:24:59.457Z,27.30
2018-06-11T00:26:04.989Z,28.00
2018-06-11T00:27:10.487Z,26.40
2018-06-11T00:28:16.006Z,27.00
2018-06-11T00:29:21.531Z,28.00
2018-06-11T00:30:27.034Z,26.60
2018-06-11T00:31:32.561Z,27.20
2018-06-11T00:32:38.073Z,27.60
2018-06-11T00:33:43.593Z,27.40
2018-06-11T00:34:49.104Z,26.90
2018-06-11T00:35:54.624Z,25.80
2018-06-11T00:37:00.145Z,26.70
2018-06-11T00:38:05.661Z,28.40
2018-06-11T00:39:11.168Z,27.80
2018-06-11T00:40:16.685Z,26.90
2018-06-11T00:41:22.207Z,27.30
2018-06-11T00:42:27.722Z,27.70
2018-06-11T00:43:33.243Z,27.60
2018-06-11T00:44:38.755Z,27.40
2018-06-11T00:45:44.285Z,26.70
2018-06-11T00:46:49.794Z,26.80
2018-06-11T00:47:55.308Z,28.40
2018-06-11T00:49:00.825Z,27.80
2018-06-11T00:50:06.344Z,27.80
2018-06-11T00:51:11.864Z,28.40
2018-06-11T00:52:17.375Z,27.70
2018-06-11T00:53:22.894Z,27.70
2018-06-11T00:54:28.423Z,27.80
2018-06-11T00:55:33.925Z,29.00
2018-06-11T00:56:39.450Z,28.10
2018-06-11T00:57:44.959Z,27.80
2018-06-11T00:58:50.487Z,28.40
2018-06-11T00:59:55.994Z,28.30
2018-06-11T01:01:01.530Z,28.80
2018-06-11T01:02:07.050Z,27.80
2018-06-11T01:03:12.556Z,27.40
2018-06-11T01:04:18.067Z,28.00
2018-06-11T01:05:23.577Z,28.10
2018-06-11T01:06:29.096Z,26.60
2018-06-11T01:07:34.630Z,26.80
2018-06-11T01:08:40.134Z,28.00
2018-06-11T01:09:45.644Z,25.80
2018-06-11T01:10:51.164Z,26.00
2018-06-11T01:11:56.683Z,25.60
2018-06-11T01:13:02.199Z,26.50
2018-06-11T01:14:07.715Z,25.50
2018-06-11T01:15:13.229Z,26.30
2018-06-11T01:16:18.745Z,26.00
2018-06-11T01:17:24.263Z,26.30
2018-06-11T01:18:29.784Z,25.00
2018-06-11T01:19:35.301Z,25.80
2018-06-11T01:20:40.815Z,25.40
2018-06-11T01:21:46.327Z,24.80
2018-06-11T01:22:51.855Z,25.20
2018-06-11T01:23:57.372Z,25.30
2018-06-11T01:25:02.879Z,25.50
2018-06-11T01:26:08.396Z,25.40
2018-06-11T01:27:13.920Z,24.60
2018-06-11T01:28:19.436Z,25.80
2018-06-11T01:29:24.945Z,24.20
2018-06-11T01:30:30.469Z,25.60
2018-06-11T01:31:35.976Z,24.70
2018-06-11T01:32:41.505Z,24.10
2018-06-11T01:33:47.018Z,24.20
2018-06-11T01:34:52.531Z,24.10
2018-06-11T01:35:58.046Z,24.60
2018-06-11T01:37:03.564Z,24.80
2018-06-11T01:38:09.079Z,24.00
2018-06-11T01:39:14.598Z,24.70
2018-06-11T01:40:20.115Z,24.10
2018-06-11T01:41:25.633Z,23.70
2018-06-11T01:42:31.140Z,24.90
2018-06-11T01:43:36.656Z,23.80
2018-06-11T01:44:42.180Z,23.80
2018-06-11T01:45:47.695Z,23.50
2018-06-11T01:46:53.211Z,23.90
2018-06-11T01:47:58.724Z,24.00
2018-06-11T01:49:04.242Z,22.50
2018-06-11T01:50:09.767Z,24.40
2018-06-11T01:51:15.280Z,22.90
2018-06-11T01:52:20.792Z,23.60
2018-06-11T01:53:26.315Z,24.10
2018-06-11T01:54:31.825Z,23.20
2018-06-11T01:55:37.346Z,23.10
2018-06-11T01:56:42.860Z,25.70
2018-06-11T01:57:48.373Z,23.90
2018-06-11T01:58:53.891Z,23.60
2018-06-11T01:59:59.412Z,23.50
2018-06-11T02:01:04.920Z,24.40
2018-06-11T02:02:10.444Z,25.20
2018-06-11T02:03:15.954Z,25.60
2018-06-11T02:04:21.476Z,23.90
2018-06-11T02:05:26.989Z,24.40
2018-06-11T02:06:32.501Z,24.90
2018-06-11T02:07:38.025Z,24.10
2018-06-11T02:08:43.547Z,24.80
2018-06-11T02:09:49.055Z,24.80
2018-06-11T02:10:54.658Z,24.10
2018-06-11T02:12:00.087Z,23.70
2018-06-11T02:13:05.602Z,24.30
2018-06-11T02:14:11.116Z,25.10
2018-06-11T02:15:16.637Z,24.30
2018-06-11T02:16:22.145Z,23.80
2018-06-11T02:17:27.665Z,25.00
2018-06-11T02:18:33.186Z,23.80
2018-06-11T02:19:38.702Z,23.60
2018-06-11T02:20:44.217Z,25.10
2018-06-11T02:21:49.762Z,24.50
2018-06-11T02:22:55.250Z,25.10
2018-06-11T02:24:00.760Z,24.60
2018-06-11T02:25:06.283Z,25.00
2018-06-11T02:26:11.797Z,25.20
2018-06-11T02:27:17.309Z,25.00
2018-06-11T02:28:22.828Z,24.10
2018-06-11T02:29:28.342Z,24.90
2018-06-11T02:30:33.866Z,24.90
2018-06-11T02:31:39.375Z,25.60
2018-06-11T02:32:44.899Z,24.20
2018-06-11T02:33:50.405Z,24.70
2018-06-11T02:34:55.932Z,25.10
2018-06-11T02:36:01.439Z,25.90
2018-06-11T02:37:06.953Z,25.50
2018-06-11T02:38:12.476Z,24.60
2018-06-11T02:39:17.986Z,24.70
2018-06-11T02:40:23.501Z,25.00
2018-06-11T02:41:29.020Z,24.70
2018-06-11T02:42:34.537Z,24.70
2018-06-11T02:43:40.055Z,23.50
2018-06-11T02:44:45.565Z,24.10
2018-06-11T02:45:51.097Z,23.80
2018-06-11T02:46:56.700Z,23.80
2018-06-11T02:48:02.159Z,23.60
2018-06-11T02:49:07.675Z,24.50
2018-06-11T02:50:13.151Z,23.10
2018-06-11T02:51:18.668Z,23.40
2018-06-11T02:52:24.187Z,23.40
2018-06-11T02:53:29.717Z,23.60
2018-06-11T02:54:35.215Z,23.50
2018-06-11T02:55:40.737Z,24.10
2018-06-11T02:56:46.248Z,23.70
2018-06-11T02:57:51.773Z,23.00
2018-06-11T02:58:57.291Z,23.20
2018-06-11T03:00:02.804Z,23.70
2018-06-11T03:01:08.311Z,23.80
2018-06-11T03:02:13.827Z,23.10
2018-06-11T03:03:19.340Z,23.70
2018-06-11T03:04:24.860Z,24.30
2018-06-11T03:05:30.383Z,23.70
2018-06-11T03:06:35.897Z,23.20
2018-06-11T03:07:41.407Z,23.00
2018-06-11T03:08:46.928Z,23.30
2018-06-11T03:09:52.443Z,23.40
2018-06-11T03:10:57.956Z,23.90
2018-06-11T03:12:03.476Z,23.00
2018-06-11T03:13:08.986Z,23.90
2018-06-11T03:14:14.514Z,22.90
2018-06-11T03:15:20.022Z,23.40
2018-06-11T03:16:25.549Z,23.40
2018-06-11T03:17:31.054Z,22.70
2018-06-11T03:18:36.577Z,22.90
2018-06-11T03:19:42.083Z,22.60
2018-06-11T03:20:47.603Z,23.50
2018-06-11T03:21:53.196Z,22.80
2018-06-11T03:22:58.638Z,23.60
2018-06-11T03:24:04.253Z,22.80
2018-06-11T03:25:09.663Z,22.10
2018-06-11T03:26:15.186Z,23.20
2018-06-11T03:27:20.727Z,22.70
2018-06-11T03:28:26.216Z,22.70
2018-06-11T03:29:31.735Z,24.30
2018-06-11T03:30:37.246Z,23.30
2018-06-11T03:31:42.759Z,23.20
2018-06-11T03:32:48.279Z,23.00
2018-06-11T03:33:53.800Z,22.00
2018-06-11T03:34:59.310Z,23.30
2018-06-11T03:36:04.831Z,23.40
2018-06-11T03:37:10.344Z,24.00
2018-06-11T03:38:15.857Z,23.10
2018-06-11T03:39:21.380Z,23.50
2018-06-11T03:40:26.898Z,23.30
2018-06-11T03:41:32.405Z,24.20
2018-06-11T03:42:37.921Z,23.60
2018-06-11T03:43:43.434Z,23.60
2018-06-11T03:44:48.955Z,23.40
2018-06-11T03:45:54.471Z,23.40
2018-06-11T03:46:59.988Z,23.30
2018-06-11T03:48:05.507Z,22.90
2018-06-11T03:49:11.016Z,23.70
2018-06-11T03:50:16.539Z,23.70
2018-06-11T03:51:22.057Z,23.30
2018-06-11T03:52:27.567Z,23.30
2018-06-11T03:53:33.086Z,23.50
2018-06-11T03:54:38.596Z,23.20
2018-06-11T03:55:44.162Z,22.90
2018-06-11T03:56:49.630Z,23.40
2018-06-11T03:57:55.149Z,23.40
2018-06-11T03:59:00.671Z,22.40
2018-06-11T04:00:06.182Z,25.20
2018-06-11T04:01:11.703Z,25.40
2018-06-11T04:02:17.311Z,23.70
2018-06-11T04:03:22.729Z,23.90
2018-06-11T04:04:28.241Z,24.20
2018-06-11T04:05:33.760Z,23.10
2018-06-11T04:06:39.289Z,24.20
2018-06-11T04:07:44.797Z,24.60
2018-06-11T04:08:50.309Z,23.80
2018-06-11T04:09:55.828Z,24.50
2018-06-11T04:11:01.444Z,27.50
2018-06-11T04:12:06.856Z,24.30
2018-06-11T04:13:12.376Z,24.70
2018-06-11T04:14:17.898Z,24.70
2018-06-11T04:15:23.409Z,24.30
2018-06-11T04:16:28.927Z,24.50
2018-06-11T04:17:34.446Z,24.20
2018-06-11T04:18:39.956Z,23.70
2018-06-11T04:19:45.477Z,24.50
2018-06-11T04:20:50.993Z,25.10
2018-06-11T04:21:56.511Z,24.70
2018-06-11T04:23:02.021Z,25.10
2018-06-11T04:24:07.537Z,24.40
2018-06-11T04:25:13.061Z,24.90
2018-06-11T04:26:18.573Z,24.70
2018-06-11T04:27:24.088Z,24.90
2018-06-11T04:28:29.603Z,25.80
2018-06-11T04:29:35.126Z,23.60
2018-06-11T04:30:40.670Z,24.00
2018-06-11T04:31:46.149Z,24.00
2018-06-11T04:32:51.673Z,23.60
2018-06-11T04:33:57.278Z,24.30
2018-06-11T04:35:02.708Z,23.60
2018-06-11T04:36:08.227Z,23.60
2018-06-11T04:37:13.743Z,23.80
2018-06-11T04:38:19.252Z,22.10
2018-06-11T04:39:24.808Z,22.60
2018-06-11T04:40:30.282Z,22.40
2018-06-11T04:41:35.800Z,23.20
2018-06-11T04:42:41.316Z,24.00
2018-06-11T04:43:46.829Z,23.00
2018-06-11T04:44:52.345Z,23.30
2018-06-11T04:45:57.868Z,22.60
2018-06-11T04:47:03.385Z,22.70
2018-06-11T04:48:08.894Z,23.90
2018-06-11T04:49:14.411Z,27.70
2018-06-11T04:50:19.925Z,23.20
2018-06-11T04:51:25.440Z,25.30
2018-06-11T04:52:30.968Z,23.60
2018-06-11T04:53:36.480Z,22.40
2018-06-11T04:54:42.006Z,23.60
2018-06-11T04:55:47.513Z,23.00
2018-06-11T04:56:53.024Z,23.10
2018-06-11T04:57:58.543Z,22.70
2018-06-11T04:59:04.064Z,22.70
2018-06-11T05:00:09.575Z,21.50
2018-06-11T05:01:15.091Z,23.80
2018-06-11T05:02:20.609Z,23.10
2018-06-11T05:03:26.124Z,22.10
2018-06-11T05:04:31.636Z,22.10
2018-06-11T05:05:37.152Z,21.30
2018-06-11T05:06:42.687Z,21.10
2018-06-11T05:07:48.186Z,21.30
2018-06-11T05:08:53.717Z,21.50
2018-06-11T05:09:59.273Z,21.50
2018-06-11T05:11:04.743Z,21.50
2018-06-11T05:12:10.255Z,21.80
2018-06-11T05:13:15.780Z,21.30
2018-06-11T05:14:21.300Z,21.20
2018-06-11T05:15:26.812Z,21.60
2018-06-11T05:16:32.316Z,21.70
2018-06-11T05:17:37.845Z,21.40
2018-06-11T05:18:43.356Z,21.10
2018-06-11T05:19:48.870Z,20.80
2018-06-11T05:20:54.384Z,20.30
2018-06-11T05:21:59.908Z,20.70
2018-06-11T05:23:05.419Z,20.50
2018-06-11T05:24:10.928Z,21.20
2018-06-11T05:25:16.448Z,20.00
2018-06-11T05:26:21.962Z,20.80
2018-06-11T05:27:27.504Z,20.80
2018-06-11T05:28:32.995Z,20.20
2018-06-11T05:29:38.516Z,21.40
2018-06-11T05:30:44.037Z,20.50
2018-06-11T05:31:49.544Z,21.50
2018-06-11T05:32:55.070Z,20.40
2018-06-11T05:34:00.595Z,20.80
2018-06-11T05:35:06.091Z,21.10
2018-06-11T05:36:11.619Z,23.30
2018-06-11T05:37:17.130Z,20.30
2018-06-11T05:38:22.643Z,20.40
2018-06-11T05:39:28.157Z,20.80
2018-06-11T05:40:33.717Z,20.80
2018-06-11T05:41:39.196Z,20.40
2018-06-11T05:42:44.716Z,20.40
2018-06-11T05:43:50.227Z,19.60
2018-06-11T05:44:55.743Z,23.50
2018-06-11T05:46:01.256Z,24.00
2018-06-11T05:47:06.782Z,24.70
2018-06-11T05:48:12.292Z,24.90
2018-06-11T05:49:17.812Z,23.30
2018-06-11T05:50:23.372Z,24.40
2018-06-11T05:51:28.840Z,22.70
2018-06-11T05:52:34.355Z,22.70
2018-06-11T05:53:39.883Z,22.10
2018-06-11T05:54:45.402Z,26.10
2018-06-11T05:55:50.904Z,22.00
2018-06-11T05:56:56.425Z,23.30
2018-06-11T05:58:01.942Z,26.90
2018-06-11T05:59:07.456Z,22.10
2018-06-11T06:00:12.978Z,24.80
2018-06-11T06:01:18.512Z,26.10
2018-06-11T06:02:23.999Z,24.50
2018-06-11T06:03:29.517Z,27.00
2018-06-11T06:04:35.036Z,26.70
2018-06-11T06:05:40.555Z,25.40
2018-06-11T06:06:46.069Z,25.20
2018-06-11T06:07:51.586Z,23.90
2018-06-11T06:08:57.101Z,26.00
2018-06-11T06:10:02.618Z,29.50
2018-06-11T06:11:08.134Z,26.30
2018-06-11T06:12:13.654Z,29.70
2018-06-11T06:13:19.169Z,27.50
2018-06-11T06:14:24.690Z,26.60
2018-06-11T06:15:30.208Z,27.60
2018-06-11T06:16:35.720Z,22.40
2018-06-11T06:17:41.235Z,25.00
2018-06-11T06:18:46.750Z,25.70
2018-06-11T06:19:52.281Z,22.40
2018-06-11T06:20:57.781Z,24.80
2018-06-11T06:22:03.306Z,22.00
2018-06-11T06:23:08.812Z,22.50
2018-06-11T06:24:14.331Z,21.50
2018-06-11T06:25:19.854Z,22.20
2018-06-11T06:26:25.365Z,24.60
2018-06-11T06:27:30.880Z,23.40
2018-06-11T06:28:36.398Z,26.90
2018-06-11T06:29:41.916Z,24.50
2018-06-11T06:30:47.445Z,23.10
2018-06-11T06:31:52.947Z,24.10
2018-06-11T06:32:58.465Z,21.60
2018-06-11T06:34:04.020Z,27.00
2018-06-11T06:35:09.496Z,22.30
2018-06-11T06:36:15.014Z,21.60
2018-06-11T06:37:20.528Z,22.20
2018-06-11T06:38:26.046Z,21.10
2018-06-11T06:39:31.565Z,22.90
2018-06-11T06:40:37.088Z,23.60
2018-06-11T06:41:42.597Z,23.80
2018-06-11T06:42:48.110Z,21.30
2018-06-11T06:43:53.627Z,23.30
2018-06-11T06:44:59.145Z,21.60
2018-06-11T06:46:04.661Z,21.40
2018-06-11T06:47:10.180Z,23.40
2018-06-11T06:48:15.695Z,24.30
2018-06-11T06:49:21.211Z,22.50
2018-06-11T06:50:26.728Z,22.10
2018-06-11T06:51:32.244Z,23.90
2018-06-11T06:52:37.762Z,24.40
2018-06-11T06:53:43.298Z,22.90
2018-06-11T06:54:48.801Z,23.30
2018-06-11T06:55:54.308Z,24.00
2018-06-11T06:56:59.826Z,25.00
2018-06-11T06:58:05.348Z,24.10
2018-06-11T06:59:10.861Z,22.90
2018-06-11T07:00:16.376Z,22.60
2018-06-11T07:01:21.895Z,23.70
2018-06-11T07:02:27.410Z,24.60
2018-06-11T07:03:32.951Z,24.20
2018-06-11T07:04:38.447Z,30.00
2018-06-11T07:05:43.960Z,25.10
2018-06-11T07:06:49.488Z,26.50
2018-06-11T07:07:54.995Z,30.80
2018-06-11T07:09:00.513Z,28.20
2018-06-11T07:10:06.033Z,29.40
2018-06-11T07:11:11.546Z,29.00
2018-06-11T07:12:17.058Z,27.60
2018-06-11T07:13:22.575Z,27.00
2018-06-11T07:14:28.091Z,26.10
2018-06-11T07:15:33.616Z,27.00
2018-06-11T07:16:39.125Z,24.40
2018-06-11T07:17:44.643Z,25.60
2018-06-11T07:18:50.166Z,26.20
2018-06-11T07:19:55.676Z,26.00
2018-06-11T07:21:01.195Z,24.20
2018-06-11T07:22:06.721Z,29.60
2018-06-11T07:23:12.224Z,30.30
2018-06-11T07:24:17.749Z,26.90
2018-06-11T07:25:23.264Z,27.90
2018-06-11T07:26:28.775Z,25.60
2018-06-11T07:27:34.295Z,25.40
2018-06-11T07:28:39.817Z,26.20
2018-06-11T07:29:45.327Z,26.60
2018-06-11T07:30:50.847Z,24.30
2018-06-11T07:31:56.360Z,25.10
2018-06-11T07:33:01.883Z,23.20
2018-06-11T07:34:07.396Z,23.40
2018-06-11T07:35:12.916Z,24.50
2018-06-11T07:36:18.434Z,25.90
2018-06-11T07:37:23.954Z,25.40
2018-06-11T07:38:29.474Z,25.40
2018-06-11T07:39:34.980Z,24.90
2018-06-11T07:40:40.504Z,27.40
2018-06-11T07:41:46.014Z,28.50
2018-06-11T07:42:51.529Z,26.60
2018-06-11T07:43:57.046Z,26.40
2018-06-11T07:45:02.577Z,28.10
2018-06-11T07:46:08.086Z,26.30
2018-06-11T07:47:13.597Z,25.50
2018-06-11T07:48:19.121Z,26.30
2018-06-11T07:49:24.635Z,25.90
2018-06-11T07:50:30.148Z,25.10
2018-06-11T07:51:35.712Z,26.90
2018-06-11T07:52:41.188Z,26.50
2018-06-11T07:53:46.713Z,26.80
2018-06-11T07:54:52.226Z,26.60
2018-06-11T07:55:57.745Z,27.70
2018-06-11T07:57:03.256Z,26.20
2018-06-11T07:58:08.769Z,26.30
2018-06-11T07:59:14.289Z,25.50
2018-06-11T08:00:19.804Z,26.60
2018-06-11T08:01:25.328Z,26.50
2018-06-11T08:02:30.840Z,26.90
2018-06-11T08:03:36.370Z,26.20
2018-06-11T08:04:41.877Z,26.40
2018-06-11T08:05:47.403Z,27.00
2018-06-11T08:06:52.908Z,26.20
2018-06-11T08:07:58.427Z,25.80
2018-06-11T08:09:03.963Z,24.80
2018-06-11T08:10:09.468Z,25.80
2018-06-11T08:11:14.976Z,25.80
2018-06-11T08:12:20.493Z,26.80
2018-06-11T08:13:26.066Z,26.90
2018-06-11T08:14:31.528Z,26.40
2018-06-11T08:15:37.082Z,26.80
2018-06-11T08:16:42.577Z,27.10
2018-06-11T08:17:48.079Z,26.00
2018-06-11T08:18:53.598Z,27.30
2018-06-11T08:19:59.113Z,26.30
2018-06-11T08:21:04.640Z,26.80
2018-06-11T08:22:10.150Z,27.30
2018-06-11T08:23:15.674Z,26.60
2018-06-11T08:24:21.188Z,27.30
2018-06-11T08:25:26.713Z,27.60
2018-06-11T08:26:32.225Z,26.80
2018-06-11T08:27:37.735Z,26.30
2018-06-11T08:28:43.269Z,27.10
2018-06-11T08:29:48.770Z,27.30
2018-06-11T08:30:54.298Z,26.20
2018-06-11T08:31:59.824Z,26.60
2018-06-11T08:33:05.322Z,26.70
2018-06-11T08:34:10.845Z,26.60
2018-06-11T08:35:16.360Z,26.50
2018-06-11T08:36:21.876Z,25.60
2018-06-11T08:37:27.448Z,25.90
2018-06-11T08:38:32.916Z,27.20
2018-06-11T08:39:38.428Z,25.60
2018-06-11T08:40:43.964Z,25.60
2018-06-11T08:41:49.464Z,25.40
2018-06-11T08:42:54.979Z,26.10
2018-06-11T08:44:00.507Z,25.70
2018-06-11T08:45:06.020Z,27.00
2018-06-11T08:46:11.544Z,25.40
2018-06-11T08:47:17.069Z,25.30
2018-06-11T08:48:22.573Z,26.60
2018-06-11T08:49:28.087Z,25.20
2018-06-11T08:50:33.611Z,25.50
2018-06-11T08:51:39.132Z,26.30
2018-06-11T08:52:44.640Z,26.70
2018-06-11T08:53:50.159Z,26.20
2018-06-11T08:54:55.693Z,27.30
2018-06-11T08:56:01.195Z,28.90
2018-06-11T08:57:06.713Z,27.70
2018-06-11T08:58:12.231Z,28.00
2018-06-11T08:59:17.756Z,28.10
2018-06-11T09:00:23.267Z,27.30
2018-06-11T09:01:28.785Z,26.50
2018-06-11T09:02:34.300Z,29.10
2018-06-11T09:03:39.823Z,28.20
2018-06-11T09:04:45.348Z,27.90
2018-06-11T09:05:50.855Z,27.40
2018-06-11T09:06:56.374Z,28.00
2018-06-11T09:08:01.895Z,28.00
2018-06-11T09:09:07.412Z,28.70
2018-06-11T09:10:12.932Z,29.70
2018-06-11T09:11:18.452Z,28.50
2018-06-11T09:12:23.965Z,27.80
2018-06-11T09:13:29.485Z,30.50
2018-06-11T09:14:35.002Z,29.60
2018-06-11T09:15:40.524Z,29.30
2018-06-11T09:16:46.043Z,30.40
2018-06-11T09:17:51.607Z,29.30
2018-06-11T09:18:57.092Z,31.30
2018-06-11T09:20:02.593Z,29.70
2018-06-11T09:21:08.229Z,29.90
2018-06-11T09:22:13.626Z,31.40
2018-06-11T09:23:19.145Z,29.60
2018-06-11T09:24:24.674Z,31.40
2018-06-11T09:25:30.182Z,29.40
2018-06-11T09:26:35.700Z,32.20
2018-06-11T09:27:41.216Z,32.00
2018-06-11T09:28:46.735Z,32.40
2018-06-11T09:29:52.261Z,31.90
2018-06-11T09:30:57.787Z,31.30
2018-06-11T09:32:03.504Z,31.70
2018-06-11T09:33:08.820Z,31.60
2018-06-11T09:34:14.324Z,30.90
2018-06-11T09:35:19.846Z,30.90
2018-06-11T09:36:25.393Z,32.40
2018-06-11T09:37:30.878Z,32.20
2018-06-11T09:38:36.400Z,33.40
2018-06-11T09:39:41.916Z,33.30
2018-06-11T09:40:47.445Z,34.90
2018-06-11T09:41:52.962Z,35.50
2018-06-11T09:42:58.483Z,36.80
2018-06-11T09:44:04.160Z,36.10
2018-06-11T09:45:09.504Z,35.40
2018-06-11T09:46:15.030Z,35.60
2018-06-11T09:47:20.545Z,35.80
2018-06-11T09:48:26.067Z,36.20
2018-06-11T09:49:31.578Z,36.30
2018-06-11T09:50:37.097Z,37.90
2018-06-11T09:51:42.623Z,36.60
2018-06-11T09:52:48.145Z,38.30
2018-06-11T09:53:53.659Z,38.00
2018-06-11T09:54:59.177Z,39.00
2018-06-11T09:56:04.696Z,39.40
2018-06-11T09:57:10.213Z,38.00
2018-06-11T09:58:15.728Z,39.00
2018-06-11T09:59:21.248Z,38.80
2018-06-11T10:00:26.771Z,40.50
2018-06-11T10:01:32.291Z,39.00
2018-06-11T10:02:37.804Z,39.40
2018-06-11T10:03:43.377Z,41.00
2018-06-11T10:04:48.841Z,39.10
2018-06-11T10:05:54.366Z,39.10
2018-06-11T10:06:59.880Z,40.40
2018-06-11T10:08:05.413Z,40.20
2018-06-11T10:09:10.983Z,38.50
2018-06-11T10:10:16.432Z,39.20
2018-06-11T10:11:21.953Z,38.60
2018-06-11T10:12:27.478Z,38.50
2018-06-11T10:13:33.009Z,38.40
2018-06-11T10:14:38.515Z,34.80
2018-06-11T10:15:44.037Z,35.50
2018-06-11T10:16:49.547Z,36.20
2018-06-11T10:17:55.064Z,36.30
2018-06-11T10:19:00.593Z,36.90
2018-06-11T10:20:06.100Z,35.80
2018-06-11T10:21:11.627Z,35.50
2018-06-11T10:22:17.147Z,35.50
2018-06-11T10:23:22.660Z,36.40
2018-06-11T10:24:28.198Z,35.10
2018-06-11T10:25:33.695Z,34.10
2018-06-11T10:26:39.215Z,33.80
2018-06-11T10:27:44.740Z,33.60
2018-06-11T10:28:50.256Z,31.60
2018-06-11T10:29:55.775Z,31.80
2018-06-11T10:31:01.295Z,32.50
2018-06-11T10:32:06.823Z,30.00
2018-06-11T10:33:12.343Z,30.30
2018-06-11T10:34:17.854Z,29.60
2018-06-11T10:35:23.380Z,29.20
2018-06-11T10:36:28.885Z,28.40
2018-06-11T10:37:34.415Z,28.10
2018-06-11T10:38:39.931Z,26.70
2018-06-11T10:39:45.446Z,27.40
2018-06-11T10:40:50.965Z,25.20
2018-06-11T10:41:56.483Z,24.80
2018-06-11T10:43:02.011Z,24.90
2018-06-11T10:44:07.521Z,24.50
2018-06-11T10:45:13.047Z,24.50
2018-06-11T10:46:18.564Z,24.60
2018-06-11T10:47:24.079Z,23.80
2018-06-11T10:48:29.596Z,24.20
2018-06-11T10:49:35.119Z,25.60
2018-06-11T10:50:40.630Z,24.80
2018-06-11T10:51:46.175Z,23.20
2018-06-11T10:52:51.673Z,23.30
2018-06-11T10:53:57.187Z,21.80
2018-06-11T10:55:02.719Z,22.00
2018-06-11T10:56:08.240Z,23.20
2018-06-11T10:57:13.747Z,22.20
2018-06-11T10:58:19.321Z,21.10
2018-06-11T10:59:24.790Z,22.00
2018-06-11T11:00:30.306Z,22.10
2018-06-11T11:01:35.840Z,23.10
2018-06-11T11:02:41.343Z,22.80
2018-06-11T11:03:46.874Z,23.40
2018-06-11T11:04:52.394Z,23.00
2018-06-11T11:05:57.911Z,23.10
2018-06-11T11:07:03.422Z,24.30
2018-06-11T11:08:08.949Z,24.40
2018-06-11T11:09:14.460Z,60.20
2018-06-11T11:10:19.978Z,20.40
2018-06-11T11:11:25.499Z,20.20
2018-06-11T11:12:31.026Z,19.40
2018-06-11T11:13:36.535Z,21.20
2018-06-11T11:14:42.061Z,20.90
2018-06-11T11:15:47.580Z,22.10
2018-06-11T11:16:53.094Z,22.60
2018-06-11T11:17:58.620Z,20.30
2018-06-11T11:19:04.134Z,22.40
2018-06-11T11:20:09.663Z,20.90
2018-06-11T11:21:15.184Z,20.50
2018-06-11T11:22:20.693Z,20.40
2018-06-11T11:23:26.215Z,19.30
2018-06-11T11:24:31.742Z,19.50
2018-06-11T11:25:37.255Z,20.30
2018-06-11T11:26:42.768Z,20.00
2018-06-11T11:27:48.294Z,20.20
2018-06-11T11:28:53.822Z,20.70
2018-06-11T11:29:59.329Z,20.80
2018-06-11T11:31:04.855Z,20.80
2018-06-11T11:32:10.393Z,22.00
2018-06-11T11:33:15.895Z,21.90
2018-06-11T11:34:21.408Z,22.20
2018-06-11T11:35:26.960Z,22.50
2018-06-11T11:36:32.520Z,22.00
2018-06-11T11:37:37.979Z,23.40
2018-06-11T11:38:43.492Z,22.20
2018-06-11T11:39:49.061Z,22.60
2018-06-11T11:40:54.539Z,20.50
2018-06-11T11:42:00.057Z,20.50
2018-06-11T11:43:05.574Z,19.80
2018-06-11T11:44:11.085Z,18.70
2018-06-11T11:45:16.609Z,19.00
2018-06-11T11:46:22.126Z,18.80
2018-06-11T11:47:27.646Z,19.10
2018-06-11T11:48:33.168Z,18.60
2018-06-11T11:49:38.696Z,18.80
2018-06-11T11:50:44.212Z,18.10
2018-06-11T11:51:49.726Z,18.70
2018-06-11T11:52:55.250Z,19.70
2018-06-11T11:54:00.766Z,19.60
2018-06-11T11:55:06.296Z,17.70
2018-06-11T11:56:11.806Z,17.70
2018-06-11T11:57:17.335Z,18.60
2018-06-11T11:58:22.847Z,19.10
2018-06-11T11:59:28.373Z,17.90
2018-06-11T12:00:33.893Z,19.10
2018-06-11T12:01:39.418Z,17.80
2018-06-11T12:02:44.940Z,16.60
2018-06-11T12:03:50.445Z,15.90
2018-06-11T12:04:55.966Z,17.30
2018-06-11T12:06:01.489Z,17.20
2018-06-11T12:07:07.003Z,19.00
2018-06-11T12:08:12.532Z,20.40
2018-06-11T12:09:18.048Z,18.40
2018-06-11T12:10:23.576Z,18.00
2018-06-11T12:11:29.112Z,17.20
2018-06-11T12:12:34.622Z,15.10
2018-06-11T12:13:40.126Z,16.60
2018-06-11T12:14:45.680Z,18.30
2018-06-11T12:15:51.170Z,15.50
2018-06-11T12:16:56.692Z,16.50
2018-06-11T12:18:02.217Z,21.10
2018-06-11T12:19:07.762Z,16.60
2018-06-11T12:20:13.247Z,15.30
2018-06-11T12:21:18.769Z,15.00
2018-06-11T12:22:24.300Z,14.90
2018-06-11T12:23:29.810Z,16.00
2018-06-11T12:24:35.330Z,16.70
2018-06-11T12:25:40.857Z,17.20
2018-06-11T12:26:46.378Z,19.00
2018-06-11T12:27:51.890Z,18.70
2018-06-11T12:28:57.414Z,17.50
2018-06-11T12:30:02.943Z,17.50
2018-06-11T12:31:08.455Z,17.10
2018-06-11T12:32:13.972Z,16.00
2018-06-11T12:33:19.493Z,16.40
2018-06-11T12:34:25.020Z,16.40
2018-06-11T12:35:30.543Z,16.30
2018-06-11T12:36:36.053Z,16.40
2018-06-11T12:37:41.575Z,16.70
2018-06-11T12:38:47.102Z,18.00
2018-06-11T12:39:52.630Z,19.40
2018-06-11T12:40:58.143Z,16.70
2018-06-11T12:42:03.738Z,17.50
2018-06-11T12:43:09.254Z,16.10
2018-06-11T12:44:14.719Z,18.00
2018-06-11T12:45:20.220Z,16.90
2018-06-11T12:46:25.746Z,16.10
2018-06-11T12:47:31.273Z,15.90
2018-06-11T12:48:36.783Z,15.40
2018-06-11T12:49:42.303Z,17.80
2018-06-11T12:50:47.817Z,17.50
2018-06-11T12:51:53.345Z,17.70
2018-06-11T12:52:58.863Z,17.60
2018-06-11T12:54:04.380Z,17.40
2018-06-11T12:55:09.906Z,17.20
2018-06-11T12:56:15.457Z,17.30
2018-06-11T12:57:20.949Z,17.40
2018-06-11T12:58:26.468Z,16.30
2018-06-11T12:59:31.982Z,14.90
2018-06-11T13:00:37.505Z,14.60
2018-06-11T13:01:43.022Z,14.30
2018-06-11T13:02:48.543Z,14.30
2018-06-11T13:03:54.064Z,12.20
2018-06-11T13:04:59.581Z,15.70
2018-06-11T13:06:05.103Z,15.40
2018-06-11T13:07:10.623Z,16.10
2018-06-11T13:08:16.220Z,15.30
2018-06-11T13:09:21.667Z,12.90
2018-06-11T13:10:27.191Z,11.70
2018-06-11T13:11:32.705Z,11.60
2018-06-11T13:12:38.232Z,10.40
2018-06-11T13:13:43.747Z,10.40
2018-06-11T13:14:49.318Z,11.20
2018-06-11T13:15:54.786Z,11.30
2018-06-11T13:17:00.330Z,11.00
2018-06-11T13:18:05.829Z,12.00
2018-06-11T13:19:11.347Z,11.00
2018-06-11T13:20:16.879Z,10.00
2018-06-11T13:21:22.388Z,11.20
2018-06-11T13:22:27.904Z,11.90
2018-06-11T13:23:33.431Z,11.20
2018-06-11T13:24:38.962Z,10.70
2018-06-11T13:25:44.469Z,10.40
2018-06-11T13:26:49.991Z,10.90
2018-06-11T13:27:55.509Z,10.40
2018-06-11T13:29:01.030Z,10.30
2018-06-11T13:30:06.551Z,13.90
2018-06-11T13:31:12.070Z,8.90
2018-06-11T13:32:17.600Z,9.10
2018-06-11T13:33:23.111Z,10.20
2018-06-11T13:34:28.633Z,10.50
2018-06-11T13:35:34.158Z,7.80
2018-06-11T13:36:39.673Z,8.50
2018-06-11T13:37:45.195Z,8.30
2018-06-11T13:38:50.715Z,8.00
2018-06-11T13:39:56.234Z,7.60
2018-06-11T13:41:01.761Z,7.50
2018-06-11T13:42:07.282Z,8.20
2018-06-11T13:43:12.811Z,7.40
2018-06-11T13:44:18.329Z,7.50
2018-06-11T13:45:23.835Z,7.20
2018-06-11T13:46:29.356Z,6.70
2018-06-11T13:47:34.918Z,8.00
2018-06-11T13:48:40.394Z,7.10
2018-06-11T13:49:45.920Z,8.80
2018-06-11T13:50:51.446Z,5.70
2018-06-11T13:51:56.970Z,6.40
2018-06-11T13:53:02.483Z,7.70
2018-06-11T13:54:08.022Z,7.30
2018-06-11T13:55:13.525Z,7.10
2018-06-11T13:56:19.038Z,7.20
2018-06-11T13:57:24.574Z,7.10
2018-06-11T13:58:30.077Z,7.00
2018-06-11T13:59:35.596Z,6.90
2018-06-11T14:00:41.127Z,6.10
2018-06-11T14:01:46.638Z,7.30
2018-06-11T14:02:52.166Z,6.20
2018-06-11T14:03:57.694Z,5.80
2018-06-11T14:05:03.200Z,8.50